sensor_id;sensor_type;location;lat;lon;timestamp;temperature;humidity
26164;DHT22;13914;48.178;11.716;2023-03-11T00:00:08;4.20;73.60
26164;DHT22;13914;48.178;11.716;2023-03-11T00:02:40;4.20;73.50
26164;DHT22;13914;48.178;11.716;2023-03-11T00:05:08;4.10;73.00
26164;DHT22;13914;48.178;11.716;2023-03-11T00:07:35;4.10;71.80
26164;DHT22;13914;48.178;11.716;2023-03-11T00:10:02;4.00;71.60
26164;DHT22;13914;48.178;11.716;2023-03-11T00:12:28;4.00;71.80
26164;DHT22;13914;48.178;11.716;2023-03-11T00:14:53;4.00;71.90
26164;DHT22;13914;48.178;11.716;2023-03-11T00:17:19;4.00;72.00
26164;DHT22;13914;48.178;11.716;2023-03-11T00:19:45;4.00;72.10
26164;DHT22;13914;48.178;11.716;2023-03-11T00:22:11;3.90;72.00
26164;DHT22;13914;48.178;11.716;2023-03-11T00:24:36;3.90;71.80
26164;DHT22;13914;48.178;11.716;2023-03-11T00:27:02;3.90;71.70
26164;DHT22;13914;48.178;11.716;2023-03-11T00:29:28;3.90;71.70
26164;DHT22;13914;48.178;11.716;2023-03-11T00:31:54;3.80;71.90
26164;DHT22;13914;48.178;11.716;2023-03-11T00:34:19;3.80;71.30
26164;DHT22;13914;48.178;11.716;2023-03-11T00:36:45;3.80;72.00
26164;DHT22;13914;48.178;11.716;2023-03-11T00:39:11;3.70;71.20
26164;DHT22;13914;48.178;11.716;2023-03-11T00:41:37;3.70;71.50
26164;DHT22;13914;48.178;11.716;2023-03-11T00:44:02;3.70;72.10
26164;DHT22;13914;48.178;11.716;2023-03-11T00:46:28;3.70;72.10
26164;DHT22;13914;48.178;11.716;2023-03-11T00:48:56;3.60;71.50
26164;DHT22;13914;48.178;11.716;2023-03-11T00:51:21;3.60;71.90
26164;DHT22;13914;48.178;11.716;2023-03-11T00:53:47;3.60;71.90
26164;DHT22;13914;48.178;11.716;2023-03-11T00:56:14;3.60;71.90
26164;DHT22;13914;48.178;11.716;2023-03-11T00:58:43;3.50;72.20
26164;DHT22;13914;48.178;11.716;2023-03-11T01:01:20;3.50;72.00
26164;DHT22;13914;48.178;11.716;2023-03-11T01:03:45;3.50;72.30
26164;DHT22;13914;48.178;11.716;2023-03-11T01:06:12;3.40;72.30
26164;DHT22;13914;48.178;11.716;2023-03-11T01:08:38;3.40;72.20
26164;DHT22;13914;48.178;11.716;2023-03-11T01:11:06;3.40;72.70
26164;DHT22;13914;48.178;11.716;2023-03-11T01:13:32;3.40;72.40
26164;DHT22;13914;48.178;11.716;2023-03-11T01:15:59;3.40;72.40
26164;DHT22;13914;48.178;11.716;2023-03-11T01:18:25;3.30;73.70
26164;DHT22;13914;48.178;11.716;2023-03-11T01:20:52;3.30;73.00
26164;DHT22;13914;48.178;11.716;2023-03-11T01:23:20;3.30;72.90
26164;DHT22;13914;48.178;11.716;2023-03-11T01:25:46;3.30;73.10
26164;DHT22;13914;48.178;11.716;2023-03-11T01:28:12;3.30;73.40
26164;DHT22;13914;48.178;11.716;2023-03-11T01:30:40;3.30;73.40
26164;DHT22;13914;48.178;11.716;2023-03-11T01:33:14;3.20;73.00
26164;DHT22;13914;48.178;11.716;2023-03-11T01:35:42;3.20;73.10
26164;DHT22;13914;48.178;11.716;2023-03-11T01:38:08;3.20;73.20
26164;DHT22;13914;48.178;11.716;2023-03-11T01:40:35;3.10;72.90
26164;DHT22;13914;48.178;11.716;2023-03-11T01:43:03;3.10;73.20
26164;DHT22;13914;48.178;11.716;2023-03-11T01:45:41;3.10;73.50
26164;DHT22;13914;48.178;11.716;2023-03-11T01:48:27;3.10;73.10
26164;DHT22;13914;48.178;11.716;2023-03-11T01:50:54;3.10;73.20
26164;DHT22;13914;48.178;11.716;2023-03-11T01:53:21;3.10;73.00
26164;DHT22;13914;48.178;11.716;2023-03-11T01:55:48;3.00;73.40
26164;DHT22;13914;48.178;11.716;2023-03-11T01:58:19;3.00;73.10
26164;DHT22;13914;48.178;11.716;2023-03-11T02:00:52;3.00;73.20
26164;DHT22;13914;48.178;11.716;2023-03-11T02:03:54;3.00;73.20
26164;DHT22;13914;48.178;11.716;2023-03-11T02:06:17;3.00;73.20
26164;DHT22;13914;48.178;11.716;2023-03-11T02:08:46;3.00;73.40
26164;DHT22;13914;48.178;11.716;2023-03-11T02:11:19;2.90;73.30
26164;DHT22;13914;48.178;11.716;2023-03-11T02:13:52;2.90;73.20
26164;DHT22;13914;48.178;11.716;2023-03-11T02:16:19;2.80;73.20
26164;DHT22;13914;48.178;11.716;2023-03-11T02:18:45;2.80;73.50
26164;DHT22;13914;48.178;11.716;2023-03-11T02:21:25;2.80;73.60
26164;DHT22;13914;48.178;11.716;2023-03-11T02:23:58;2.80;73.50
26164;DHT22;13914;48.178;11.716;2023-03-11T02:29:28;2.80;73.40
26164;DHT22;13914;48.178;11.716;2023-03-11T02:31:56;2.70;73.10
26164;DHT22;13914;48.178;11.716;2023-03-11T02:34:27;2.70;73.50
26164;DHT22;13914;48.178;11.716;2023-03-11T02:36:54;2.70;73.40
26164;DHT22;13914;48.178;11.716;2023-03-11T02:39:34;2.70;73.40
26164;DHT22;13914;48.178;11.716;2023-03-11T02:42:18;2.70;73.20
26164;DHT22;13914;48.178;11.716;2023-03-11T02:47:39;2.60;73.40
26164;DHT22;13914;48.178;11.716;2023-03-11T02:50:07;2.60;74.00
26164;DHT22;13914;48.178;11.716;2023-03-11T02:52:34;2.60;73.50
26164;DHT22;13914;48.178;11.716;2023-03-11T02:55:01;2.60;73.20
26164;DHT22;13914;48.178;11.716;2023-03-11T02:57:27;2.60;73.30
26164;DHT22;13914;48.178;11.716;2023-03-11T02:59:53;2.50;73.10
26164;DHT22;13914;48.178;11.716;2023-03-11T03:02:19;2.50;73.30
26164;DHT22;13914;48.178;11.716;2023-03-11T03:04:44;2.50;73.20
26164;DHT22;13914;48.178;11.716;2023-03-11T03:07:10;2.50;72.90
26164;DHT22;13914;48.178;11.716;2023-03-11T03:09:36;2.40;73.20
26164;DHT22;13914;48.178;11.716;2023-03-11T03:12:03;2.40;73.10
26164;DHT22;13914;48.178;11.716;2023-03-11T03:14:30;2.40;73.00
26164;DHT22;13914;48.178;11.716;2023-03-11T03:16:56;2.40;73.20
26164;DHT22;13914;48.178;11.716;2023-03-11T03:19:21;2.30;72.90
26164;DHT22;13914;48.178;11.716;2023-03-11T03:21:47;2.30;73.00
26164;DHT22;13914;48.178;11.716;2023-03-11T03:24:14;2.30;73.20
26164;DHT22;13914;48.178;11.716;2023-03-11T03:26:40;2.20;73.00
26164;DHT22;13914;48.178;11.716;2023-03-11T03:29:06;2.30;73.40
26164;DHT22;13914;48.178;11.716;2023-03-11T03:31:32;2.20;73.00
26164;DHT22;13914;48.178;11.716;2023-03-11T03:33:58;2.20;72.70
26164;DHT22;13914;48.178;11.716;2023-03-11T03:36:23;2.20;73.10
26164;DHT22;13914;48.178;11.716;2023-03-11T03:38:54;2.10;72.70
26164;DHT22;13914;48.178;11.716;2023-03-11T03:41:20;2.10;73.00
26164;DHT22;13914;48.178;11.716;2023-03-11T03:43:46;2.10;73.40
26164;DHT22;13914;48.178;11.716;2023-03-11T03:46:12;2.10;73.40
26164;DHT22;13914;48.178;11.716;2023-03-11T03:48:38;2.10;73.60
26164;DHT22;13914;48.178;11.716;2023-03-11T03:51:09;2.10;73.70
26164;DHT22;13914;48.178;11.716;2023-03-11T03:53:36;2.10;73.50
26164;DHT22;13914;48.178;11.716;2023-03-11T03:56:07;2.10;73.60
26164;DHT22;13914;48.178;11.716;2023-03-11T03:58:37;2.10;73.60
26164;DHT22;13914;48.178;11.716;2023-03-11T04:01:03;2.10;73.80
26164;DHT22;13914;48.178;11.716;2023-03-11T04:03:30;2.00;73.40
26164;DHT22;13914;48.178;11.716;2023-03-11T04:06:17;2.00;73.70
26164;DHT22;13914;48.178;11.716;2023-03-11T04:08:45;2.00;73.50
26164;DHT22;13914;48.178;11.716;2023-03-11T04:11:11;2.00;73.70
26164;DHT22;13914;48.178;11.716;2023-03-11T04:13:38;1.90;73.50
26164;DHT22;13914;48.178;11.716;2023-03-11T04:16:05;1.90;73.40
26164;DHT22;13914;48.178;11.716;2023-03-11T04:18:33;1.90;73.60
26164;DHT22;13914;48.178;11.716;2023-03-11T04:20:59;1.90;73.80
26164;DHT22;13914;48.178;11.716;2023-03-11T04:23:24;1.90;73.80
26164;DHT22;13914;48.178;11.716;2023-03-11T04:25:50;1.80;73.80
26164;DHT22;13914;48.178;11.716;2023-03-11T04:28:16;1.90;73.90
26164;DHT22;13914;48.178;11.716;2023-03-11T04:30:42;1.80;73.70
26164;DHT22;13914;48.178;11.716;2023-03-11T04:33:08;1.80;73.70
26164;DHT22;13914;48.178;11.716;2023-03-11T04:35:33;1.80;74.10
26164;DHT22;13914;48.178;11.716;2023-03-11T04:38:00;1.80;73.80
26164;DHT22;13914;48.178;11.716;2023-03-11T04:40:25;1.80;73.90
26164;DHT22;13914;48.178;11.716;2023-03-11T04:42:52;1.70;74.00
26164;DHT22;13914;48.178;11.716;2023-03-11T04:45:21;1.70;74.00
26164;DHT22;13914;48.178;11.716;2023-03-11T04:47:48;1.70;74.10
26164;DHT22;13914;48.178;11.716;2023-03-11T04:50:15;1.70;74.20
26164;DHT22;13914;48.178;11.716;2023-03-11T04:52:41;1.70;74.30
26164;DHT22;13914;48.178;11.716;2023-03-11T04:55:07;1.70;74.30
26164;DHT22;13914;48.178;11.716;2023-03-11T04:57:34;1.70;74.40
26164;DHT22;13914;48.178;11.716;2023-03-11T05:00:00;1.70;74.40
26164;DHT22;13914;48.178;11.716;2023-03-11T05:02:26;1.60;74.30
26164;DHT22;13914;48.178;11.716;2023-03-11T05:04:51;1.60;74.40
26164;DHT22;13914;48.178;11.716;2023-03-11T05:07:17;1.70;74.50
26164;DHT22;13914;48.178;11.716;2023-03-11T05:09:43;1.70;74.50
26164;DHT22;13914;48.178;11.716;2023-03-11T05:12:10;1.70;74.60
26164;DHT22;13914;48.178;11.716;2023-03-11T05:14:36;1.60;74.50
26164;DHT22;13914;48.178;11.716;2023-03-11T05:17:02;1.60;74.60
26164;DHT22;13914;48.178;11.716;2023-03-11T05:19:29;1.60;74.70
26164;DHT22;13914;48.178;11.716;2023-03-11T05:21:55;1.60;74.70
26164;DHT22;13914;48.178;11.716;2023-03-11T05:24:21;1.60;74.90
26164;DHT22;13914;48.178;11.716;2023-03-11T05:26:47;1.60;74.90
26164;DHT22;13914;48.178;11.716;2023-03-11T05:29:13;1.60;74.80
26164;DHT22;13914;48.178;11.716;2023-03-11T05:31:39;1.70;74.60
26164;DHT22;13914;48.178;11.716;2023-03-11T05:34:05;1.60;74.40
26164;DHT22;13914;48.178;11.716;2023-03-11T05:36:30;1.60;74.10
26164;DHT22;13914;48.178;11.716;2023-03-11T05:38:57;1.60;74.40
26164;DHT22;13914;48.178;11.716;2023-03-11T05:41:23;1.60;74.50
26164;DHT22;13914;48.178;11.716;2023-03-11T05:43:48;1.60;74.20
26164;DHT22;13914;48.178;11.716;2023-03-11T05:46:14;1.60;74.20
26164;DHT22;13914;48.178;11.716;2023-03-11T05:48:40;1.60;74.20
26164;DHT22;13914;48.178;11.716;2023-03-11T05:51:10;1.60;74.20
26164;DHT22;13914;48.178;11.716;2023-03-11T05:53:36;1.60;74.20
26164;DHT22;13914;48.178;11.716;2023-03-11T05:56:03;1.60;74.50
26164;DHT22;13914;48.178;11.716;2023-03-11T05:58:30;1.50;74.40
26164;DHT22;13914;48.178;11.716;2023-03-11T06:00:57;1.50;74.50
26164;DHT22;13914;48.178;11.716;2023-03-11T06:03:24;1.50;74.70
26164;DHT22;13914;48.178;11.716;2023-03-11T06:05:51;1.50;74.50
26164;DHT22;13914;48.178;11.716;2023-03-11T06:08:18;1.50;74.20
26164;DHT22;13914;48.178;11.716;2023-03-11T06:10:44;1.50;74.40
26164;DHT22;13914;48.178;11.716;2023-03-11T06:13:10;1.50;73.90
26164;DHT22;13914;48.178;11.716;2023-03-11T06:15:37;1.50;74.20
26164;DHT22;13914;48.178;11.716;2023-03-11T06:18:03;1.50;74.20
26164;DHT22;13914;48.178;11.716;2023-03-11T06:20:30;1.50;74.10
26164;DHT22;13914;48.178;11.716;2023-03-11T06:22:56;1.50;74.00
26164;DHT22;13914;48.178;11.716;2023-03-11T06:25:22;1.50;74.30
26164;DHT22;13914;48.178;11.716;2023-03-11T06:27:48;1.50;74.10
26164;DHT22;13914;48.178;11.716;2023-03-11T06:30:17;1.50;74.20
26164;DHT22;13914;48.178;11.716;2023-03-11T06:32:46;1.50;74.30
26164;DHT22;13914;48.178;11.716;2023-03-11T06:35:12;1.50;74.20
26164;DHT22;13914;48.178;11.716;2023-03-11T06:37:38;1.50;74.40
26164;DHT22;13914;48.178;11.716;2023-03-11T06:40:07;1.50;74.20
26164;DHT22;13914;48.178;11.716;2023-03-11T06:42:34;1.50;74.40
26164;DHT22;13914;48.178;11.716;2023-03-11T06:45:00;1.50;74.40
26164;DHT22;13914;48.178;11.716;2023-03-11T06:47:26;1.50;74.30
26164;DHT22;13914;48.178;11.716;2023-03-11T06:49:52;1.50;74.30
26164;DHT22;13914;48.178;11.716;2023-03-11T06:52:19;1.50;74.40
26164;DHT22;13914;48.178;11.716;2023-03-11T06:54:48;1.50;74.40
26164;DHT22;13914;48.178;11.716;2023-03-11T06:57:14;1.50;74.40
26164;DHT22;13914;48.178;11.716;2023-03-11T06:59:40;1.50;74.30
26164;DHT22;13914;48.178;11.716;2023-03-11T07:02:09;1.50;74.40
26164;DHT22;13914;48.178;11.716;2023-03-11T07:04:37;1.50;74.50
26164;DHT22;13914;48.178;11.716;2023-03-11T07:07:02;1.50;74.40
26164;DHT22;13914;48.178;11.716;2023-03-11T07:09:28;1.50;74.10
26164;DHT22;13914;48.178;11.716;2023-03-11T07:11:54;1.50;74.20
26164;DHT22;13914;48.178;11.716;2023-03-11T07:14:20;1.50;74.20
26164;DHT22;13914;48.178;11.716;2023-03-11T07:16:46;1.60;74.30
26164;DHT22;13914;48.178;11.716;2023-03-11T07:19:12;1.60;74.10
26164;DHT22;13914;48.178;11.716;2023-03-11T07:21:39;1.60;74.40
26164;DHT22;13914;48.178;11.716;2023-03-11T07:24:06;1.70;74.00
26164;DHT22;13914;48.178;11.716;2023-03-11T07:26:33;1.60;73.90
26164;DHT22;13914;48.178;11.716;2023-03-11T07:29:00;1.70;73.90
26164;DHT22;13914;48.178;11.716;2023-03-11T07:31:27;1.70;73.70
26164;DHT22;13914;48.178;11.716;2023-03-11T07:33:57;1.70;73.90
26164;DHT22;13914;48.178;11.716;2023-03-11T07:36:25;1.70;73.80
26164;DHT22;13914;48.178;11.716;2023-03-11T07:39:00;1.70;73.30
26164;DHT22;13914;48.178;11.716;2023-03-11T07:41:30;1.70;73.50
26164;DHT22;13914;48.178;11.716;2023-03-11T07:43:58;1.80;73.20
26164;DHT22;13914;48.178;11.716;2023-03-11T07:46:27;1.80;73.80
26164;DHT22;13914;48.178;11.716;2023-03-11T07:48:54;1.90;74.10
26164;DHT22;13914;48.178;11.716;2023-03-11T07:51:21;1.90;73.40
26164;DHT22;13914;48.178;11.716;2023-03-11T07:53:50;1.90;73.00
26164;DHT22;13914;48.178;11.716;2023-03-11T07:56:18;2.00;72.80
26164;DHT22;13914;48.178;11.716;2023-03-11T07:58:44;2.00;72.60
26164;DHT22;13914;48.178;11.716;2023-03-11T08:01:15;2.10;73.10
26164;DHT22;13914;48.178;11.716;2023-03-11T08:03:44;2.20;73.20
26164;DHT22;13914;48.178;11.716;2023-03-11T08:06:16;2.20;73.40
26164;DHT22;13914;48.178;11.716;2023-03-11T08:08:46;2.30;74.60
26164;DHT22;13914;48.178;11.716;2023-03-11T08:11:13;2.40;74.20
26164;DHT22;13914;48.178;11.716;2023-03-11T08:13:41;2.50;74.40
26164;DHT22;13914;48.178;11.716;2023-03-11T08:16:10;2.50;74.40
26164;DHT22;13914;48.178;11.716;2023-03-11T08:18:37;2.60;74.60
26164;DHT22;13914;48.178;11.716;2023-03-11T08:21:09;2.70;73.40
26164;DHT22;13914;48.178;11.716;2023-03-11T08:23:37;2.70;73.70
26164;DHT22;13914;48.178;11.716;2023-03-11T08:26:04;2.80;73.40
26164;DHT22;13914;48.178;11.716;2023-03-11T08:28:31;2.80;72.90
26164;DHT22;13914;48.178;11.716;2023-03-11T08:30:57;2.90;74.30
26164;DHT22;13914;48.178;11.716;2023-03-11T08:33:23;3.00;73.50
26164;DHT22;13914;48.178;11.716;2023-03-11T08:35:49;3.10;73.10
26164;DHT22;13914;48.178;11.716;2023-03-11T08:38:15;3.10;71.50
26164;DHT22;13914;48.178;11.716;2023-03-11T08:40:40;3.20;73.30
26164;DHT22;13914;48.178;11.716;2023-03-11T08:43:06;3.30;72.90
26164;DHT22;13914;48.178;11.716;2023-03-11T08:45:32;3.40;72.00
26164;DHT22;13914;48.178;11.716;2023-03-11T08:47:58;3.40;72.60
26164;DHT22;13914;48.178;11.716;2023-03-11T08:50:24;3.50;73.00
26164;DHT22;13914;48.178;11.716;2023-03-11T08:52:50;3.50;71.20
26164;DHT22;13914;48.178;11.716;2023-03-11T08:55:17;3.60;71.50
26164;DHT22;13914;48.178;11.716;2023-03-11T08:57:49;3.60;72.30
26164;DHT22;13914;48.178;11.716;2023-03-11T09:00:16;3.60;70.80
26164;DHT22;13914;48.178;11.716;2023-03-11T09:02:42;3.60;70.30
26164;DHT22;13914;48.178;11.716;2023-03-11T09:05:08;3.70;71.30
26164;DHT22;13914;48.178;11.716;2023-03-11T09:07:34;3.80;71.50
26164;DHT22;13914;48.178;11.716;2023-03-11T09:10:00;3.80;70.40
26164;DHT22;13914;48.178;11.716;2023-03-11T09:12:26;3.90;71.70
26164;DHT22;13914;48.178;11.716;2023-03-11T09:14:52;4.00;71.20
26164;DHT22;13914;48.178;11.716;2023-03-11T09:17:18;4.10;71.40
26164;DHT22;13914;48.178;11.716;2023-03-11T09:19:44;4.10;71.20
26164;DHT22;13914;48.178;11.716;2023-03-11T09:22:10;4.10;69.20
26164;DHT22;13914;48.178;11.716;2023-03-11T09:24:36;4.10;70.90
26164;DHT22;13914;48.178;11.716;2023-03-11T09:27:02;4.20;70.60
26164;DHT22;13914;48.178;11.716;2023-03-11T09:29:28;4.20;68.80
26164;DHT22;13914;48.178;11.716;2023-03-11T09:31:54;4.20;69.60
26164;DHT22;13914;48.178;11.716;2023-03-11T09:34:20;4.20;69.80
26164;DHT22;13914;48.178;11.716;2023-03-11T09:36:46;4.30;69.40
26164;DHT22;13914;48.178;11.716;2023-03-11T09:39:12;4.30;68.80
26164;DHT22;13914;48.178;11.716;2023-03-11T09:42:01;4.40;69.20
26164;DHT22;13914;48.178;11.716;2023-03-11T09:44:42;4.50;70.30
26164;DHT22;13914;48.178;11.716;2023-03-11T09:53:17;4.70;67.60
26164;DHT22;13914;48.178;11.716;2023-03-11T09:56:07;4.70;66.70
26164;DHT22;13914;48.178;11.716;2023-03-11T09:58:46;4.70;67.20
26164;DHT22;13914;48.178;11.716;2023-03-11T10:01:34;4.80;67.10
26164;DHT22;13914;48.178;11.716;2023-03-11T10:04:22;4.90;67.60
26164;DHT22;13914;48.178;11.716;2023-03-11T10:06:51;4.90;66.20
26164;DHT22;13914;48.178;11.716;2023-03-11T10:09:38;4.90;66.70
26164;DHT22;13914;48.178;11.716;2023-03-11T10:15:48;5.10;66.70
26164;DHT22;13914;48.178;11.716;2023-03-11T10:23:54;5.30;65.60
26164;DHT22;13914;48.178;11.716;2023-03-11T10:26:36;5.40;66.30
26164;DHT22;13914;48.178;11.716;2023-03-11T10:29:24;5.40;65.30
26164;DHT22;13914;48.178;11.716;2023-03-11T10:32:12;5.40;65.60
26164;DHT22;13914;48.178;11.716;2023-03-11T10:34:58;5.50;67.50
26164;DHT22;13914;48.178;11.716;2023-03-11T10:37:38;5.60;65.60
26164;DHT22;13914;48.178;11.716;2023-03-11T10:40:31;5.60;64.50
26164;DHT22;13914;48.178;11.716;2023-03-11T10:43:02;5.50;63.60
26164;DHT22;13914;48.178;11.716;2023-03-11T10:45:36;5.60;65.40
26164;DHT22;13914;48.178;11.716;2023-03-11T10:48:13;5.50;63.50
26164;DHT22;13914;48.178;11.716;2023-03-11T10:51:16;5.50;63.60
26164;DHT22;13914;48.178;11.716;2023-03-11T10:53:55;5.50;64.70
26164;DHT22;13914;48.178;11.716;2023-03-11T10:56:35;5.60;64.90
26164;DHT22;13914;48.178;11.716;2023-03-11T10:59:05;5.60;64.60
26164;DHT22;13914;48.178;11.716;2023-03-11T11:01:56;5.70;64.50
26164;DHT22;13914;48.178;11.716;2023-03-11T11:04:38;5.80;64.30
26164;DHT22;13914;48.178;11.716;2023-03-11T11:07:35;5.70;63.50
26164;DHT22;13914;48.178;11.716;2023-03-11T11:13:15;5.80;64.30
26164;DHT22;13914;48.178;11.716;2023-03-11T11:18:19;5.80;64.60
26164;DHT22;13914;48.178;11.716;2023-03-11T11:21:03;5.80;63.60
26164;DHT22;13914;48.178;11.716;2023-03-11T11:26:20;5.70;63.70
26164;DHT22;13914;48.178;11.716;2023-03-11T11:31:39;6.00;65.30
26164;DHT22;13914;48.178;11.716;2023-03-11T11:34:27;6.00;64.30
26164;DHT22;13914;48.178;11.716;2023-03-11T11:37:01;6.00;62.80
26164;DHT22;13914;48.178;11.716;2023-03-11T11:39:35;6.00;64.60
26164;DHT22;13914;48.178;11.716;2023-03-11T11:42:10;6.00;63.60
26164;DHT22;13914;48.178;11.716;2023-03-11T11:44:38;5.90;62.80
26164;DHT22;13914;48.178;11.716;2023-03-11T11:47:26;6.10;64.80
26164;DHT22;13914;48.178;11.716;2023-03-11T11:49:57;6.00;62.00
26164;DHT22;13914;48.178;11.716;2023-03-11T11:52:39;6.00;63.60
26164;DHT22;13914;48.178;11.716;2023-03-11T11:55:26;6.00;62.90
26164;DHT22;13914;48.178;11.716;2023-03-11T11:57:53;6.10;63.70
26164;DHT22;13914;48.178;11.716;2023-03-11T12:17:34;6.40;62.70
26164;DHT22;13914;48.178;11.716;2023-03-11T12:20:11;6.40;62.40
26164;DHT22;13914;48.178;11.716;2023-03-11T12:31:03;6.40;64.50
26164;DHT22;13914;48.178;11.716;2023-03-11T12:33:37;6.50;64.00
26164;DHT22;13914;48.178;11.716;2023-03-11T12:36:06;6.50;61.90
26164;DHT22;13914;48.178;11.716;2023-03-11T12:38:45;6.50;62.10
26164;DHT22;13914;48.178;11.716;2023-03-11T12:44:04;6.60;63.70
26164;DHT22;13914;48.178;11.716;2023-03-11T12:47:10;6.60;62.60
26164;DHT22;13914;48.178;11.716;2023-03-11T12:49:46;6.70;62.40
26164;DHT22;13914;48.178;11.716;2023-03-11T12:52:25;6.60;60.50
26164;DHT22;13914;48.178;11.716;2023-03-11T12:58:31;6.70;62.60
26164;DHT22;13914;48.178;11.716;2023-03-11T13:01:17;6.70;63.00
26164;DHT22;13914;48.178;11.716;2023-03-11T13:04:29;6.90;64.10
26164;DHT22;13914;48.178;11.716;2023-03-11T13:07:25;6.70;57.30
26164;DHT22;13914;48.178;11.716;2023-03-11T13:12:43;6.80;61.30
26164;DHT22;13914;48.178;11.716;2023-03-11T13:31:35;7.50;61.80
26164;DHT22;13914;48.178;11.716;2023-03-11T13:37:28;7.60;62.20
26164;DHT22;13914;48.178;11.716;2023-03-11T13:42:59;7.70;63.80
26164;DHT22;13914;48.178;11.716;2023-03-11T13:45:33;7.80;64.30
26164;DHT22;13914;48.178;11.716;2023-03-11T13:48:13;7.80;63.70
26164;DHT22;13914;48.178;11.716;2023-03-11T13:50:49;7.80;63.60
26164;DHT22;13914;48.178;11.716;2023-03-11T13:53:54;7.80;64.20
26164;DHT22;13914;48.178;11.716;2023-03-11T13:56:25;8.00;63.30
26164;DHT22;13914;48.178;11.716;2023-03-11T13:58:52;8.00;64.10
26164;DHT22;13914;48.178;11.716;2023-03-11T14:01:18;8.00;64.20
26164;DHT22;13914;48.178;11.716;2023-03-11T14:03:45;8.10;63.70
26164;DHT22;13914;48.178;11.716;2023-03-11T14:06:17;8.10;63.60
26164;DHT22;13914;48.178;11.716;2023-03-11T14:08:52;8.10;63.30
26164;DHT22;13914;48.178;11.716;2023-03-11T14:11:18;8.20;64.20
26164;DHT22;13914;48.178;11.716;2023-03-11T14:13:46;8.30;65.70
26164;DHT22;13914;48.178;11.716;2023-03-11T14:16:23;8.40;65.40
26164;DHT22;13914;48.178;11.716;2023-03-11T14:19:17;8.40;62.70
26164;DHT22;13914;48.178;11.716;2023-03-11T14:21:46;8.30;61.70
26164;DHT22;13914;48.178;11.716;2023-03-11T14:24:25;8.30;63.30
26164;DHT22;13914;48.178;11.716;2023-03-11T14:26:55;8.30;63.80
26164;DHT22;13914;48.178;11.716;2023-03-11T14:29:35;8.40;62.40
26164;DHT22;13914;48.178;11.716;2023-03-11T14:32:31;8.40;62.50
26164;DHT22;13914;48.178;11.716;2023-03-11T14:34:58;8.40;65.10
26164;DHT22;13914;48.178;11.716;2023-03-11T14:37:35;8.50;63.50
26164;DHT22;13914;48.178;11.716;2023-03-11T14:40:17;8.40;61.70
26164;DHT22;13914;48.178;11.716;2023-03-11T14:42:48;8.40;64.60
26164;DHT22;13914;48.178;11.716;2023-03-11T14:45:21;8.40;62.30
26164;DHT22;13914;48.178;11.716;2023-03-11T14:48:14;8.40;62.30
26164;DHT22;13914;48.178;11.716;2023-03-11T14:50:45;8.30;60.30
26164;DHT22;13914;48.178;11.716;2023-03-11T14:53:23;8.30;60.40
26164;DHT22;13914;48.178;11.716;2023-03-11T14:55:57;8.20;60.40
26164;DHT22;13914;48.178;11.716;2023-03-11T14:58:34;8.10;60.70
26164;DHT22;13914;48.178;11.716;2023-03-11T15:06:30;8.10;61.90
26164;DHT22;13914;48.178;11.716;2023-03-11T15:09:17;8.00;60.40
26164;DHT22;13914;48.178;11.716;2023-03-11T15:11:49;7.80;59.50
26164;DHT22;13914;48.178;11.716;2023-03-11T15:14:49;7.80;60.10
26164;DHT22;13914;48.178;11.716;2023-03-11T15:17:22;7.70;61.60
26164;DHT22;13914;48.178;11.716;2023-03-11T15:19:53;7.70;60.80
26164;DHT22;13914;48.178;11.716;2023-03-11T15:22:32;7.60;61.10
26164;DHT22;13914;48.178;11.716;2023-03-11T15:25:03;7.50;59.90
26164;DHT22;13914;48.178;11.716;2023-03-11T15:27:39;7.50;61.10
26164;DHT22;13914;48.178;11.716;2023-03-11T15:30:29;7.40;60.00
26164;DHT22;13914;48.178;11.716;2023-03-11T15:32:57;7.30;60.90
26164;DHT22;13914;48.178;11.716;2023-03-11T15:35:25;7.30;60.30
26164;DHT22;13914;48.178;11.716;2023-03-11T15:38:12;7.20;59.90
26164;DHT22;13914;48.178;11.716;2023-03-11T15:41:01;7.20;59.50
26164;DHT22;13914;48.178;11.716;2023-03-11T15:43:32;7.10;60.50
26164;DHT22;13914;48.178;11.716;2023-03-11T15:46:01;7.10;59.90
26164;DHT22;13914;48.178;11.716;2023-03-11T15:48:28;7.00;60.40
26164;DHT22;13914;48.178;11.716;2023-03-11T15:50:57;7.00;60.70
26164;DHT22;13914;48.178;11.716;2023-03-11T15:53:25;6.90;60.20
26164;DHT22;13914;48.178;11.716;2023-03-11T15:55:53;6.90;60.70
26164;DHT22;13914;48.178;11.716;2023-03-11T15:58:21;6.80;59.90
26164;DHT22;13914;48.178;11.716;2023-03-11T16:00:53;6.70;60.40
26164;DHT22;13914;48.178;11.716;2023-03-11T16:03:21;6.60;60.30
26164;DHT22;13914;48.178;11.716;2023-03-11T16:05:47;6.60;60.60
26164;DHT22;13914;48.178;11.716;2023-03-11T16:08:13;6.60;61.10
26164;DHT22;13914;48.178;11.716;2023-03-11T16:10:39;6.60;60.40
26164;DHT22;13914;48.178;11.716;2023-03-11T16:13:05;6.50;60.20
26164;DHT22;13914;48.178;11.716;2023-03-11T16:15:33;6.40;60.70
26164;DHT22;13914;48.178;11.716;2023-03-11T16:18:03;6.40;60.00
26164;DHT22;13914;48.178;11.716;2023-03-11T16:20:39;6.30;60.30
26164;DHT22;13914;48.178;11.716;2023-03-11T16:23:15;6.20;60.80
26164;DHT22;13914;48.178;11.716;2023-03-11T16:25:46;6.10;60.20
26164;DHT22;13914;48.178;11.716;2023-03-11T16:28:14;6.00;60.60
26164;DHT22;13914;48.178;11.716;2023-03-11T16:30:41;6.00;60.40
26164;DHT22;13914;48.178;11.716;2023-03-11T16:33:07;6.00;60.50
26164;DHT22;13914;48.178;11.716;2023-03-11T16:35:32;5.90;60.50
26164;DHT22;13914;48.178;11.716;2023-03-11T16:37:58;5.80;61.00
26164;DHT22;13914;48.178;11.716;2023-03-11T16:40:26;5.80;61.20
26164;DHT22;13914;48.178;11.716;2023-03-11T16:43:06;5.80;61.20
26164;DHT22;13914;48.178;11.716;2023-03-11T16:45:34;5.70;61.10
26164;DHT22;13914;48.178;11.716;2023-03-11T16:48:01;5.70;61.00
26164;DHT22;13914;48.178;11.716;2023-03-11T16:50:30;5.60;61.30
26164;DHT22;13914;48.178;11.716;2023-03-11T16:52:57;5.60;62.40
26164;DHT22;13914;48.178;11.716;2023-03-11T16:55:24;5.60;62.20
26164;DHT22;13914;48.178;11.716;2023-03-11T16:57:51;5.50;61.60
26164;DHT22;13914;48.178;11.716;2023-03-11T17:00:19;5.50;61.60
26164;DHT22;13914;48.178;11.716;2023-03-11T17:02:45;5.50;62.30
26164;DHT22;13914;48.178;11.716;2023-03-11T17:05:11;5.50;62.40
26164;DHT22;13914;48.178;11.716;2023-03-11T17:07:37;5.50;62.80
26164;DHT22;13914;48.178;11.716;2023-03-11T17:10:03;5.40;62.50
26164;DHT22;13914;48.178;11.716;2023-03-11T17:12:29;5.40;63.10
26164;DHT22;13914;48.178;11.716;2023-03-11T17:14:55;5.40;63.70
26164;DHT22;13914;48.178;11.716;2023-03-11T17:17:21;5.40;62.50
26164;DHT22;13914;48.178;11.716;2023-03-11T17:19:47;5.30;63.10
26164;DHT22;13914;48.178;11.716;2023-03-11T17:22:13;5.30;63.00
26164;DHT22;13914;48.178;11.716;2023-03-11T17:24:39;5.30;63.30